createdAt,value
2018-07-15T00:03:02.507Z,99710.09
2018-07-15T00:09:08.602Z,99709.43
2018-07-15T00:15:14.334Z,99708.20
2018-07-15T00:21:20.200Z,99711.41
2018-07-15T00:27:26.874Z,99707.30
2018-07-15T00:33:32.677Z,99700.11
2018-07-15T00:39:38.717Z,99701.13
2018-07-15T00:45:44.594Z,99706.06
2018-07-15T00:51:50.658Z,99706.92
2018-07-15T00:57:56.135Z,99709.29
2018-07-15T01:04:01.901Z,99707.64
2018-07-15T01:10:07.949Z,99704.50
2018-07-15T01:16:14.240Z,99696.63
2018-07-15T01:22:21.121Z,99696.94
2018-07-15T01:28:27.189Z,99698.94
2018-07-15T01:34:33.128Z,99689.95
2018-07-15T01:40:38.765Z,99699.74
2018-07-15T01:46:44.744Z,99693.47
2018-07-15T01:52:51.926Z,99693.48
2018-07-15T01:58:57.728Z,99692.89
2018-07-15T02:05:03.321Z,99688.77
2018-07-15T02:11:09.061Z,99682.30
2018-07-15T02:17:14.659Z,99680.05
2018-07-15T02:23:20.727Z,99688.28
2018-07-15T02:29:27.495Z,99690.31
2018-07-15T02:35:33.172Z,99684.95
2018-07-15T02:41:38.963Z,99676.94
2018-07-15T02:47:45.089Z,99677.60
2018-07-15T02:53:51.376Z,99682.06
2018-07-15T02:59:57.511Z,99674.91
2018-07-15T03:06:03.140Z,99683.63
2018-07-15T03:12:08.776Z,99673.72
2018-07-15T03:18:14.524Z,99670.71
2018-07-15T03:24:20.438Z,99667.97
2018-07-15T03:30:26.055Z,99670.67
2018-07-15T03:36:32.018Z,99667.91
2018-07-15T03:42:37.713Z,99667.67
2018-07-15T03:48:43.923Z,99673.90
2018-07-15T03:54:50.222Z,99664.78
2018-07-15T04:00:56.314Z,99661.16
2018-07-15T04:07:02.340Z,99649.44
2018-07-15T04:13:08.449Z,99661.48
2018-07-15T04:19:14.326Z,99659.28
2018-07-15T04:25:20.136Z,99654.31
2018-07-15T04:31:26.570Z,99663.91
2018-07-15T04:37:32.364Z,99655.33
2018-07-15T04:43:38.236Z,99662.84
2018-07-15T04:49:43.884Z,99653.22
2018-07-15T04:55:50.257Z,99651.64
2018-07-15T05:01:56.283Z,99652.02
2018-07-15T05:08:01.997Z,99655.50
2018-07-15T05:14:08.308Z,99650.95
2018-07-15T05:20:14.070Z,99651.72
2018-07-15T05:26:19.903Z,99648.72
2018-07-15T05:32:26.014Z,99651.57
2018-07-15T05:38:31.630Z,99659.00
2018-07-15T05:44:37.312Z,99661.25
2018-07-15T05:50:43.053Z,99673.69
2018-07-15T05:56:50.067Z,99665.09
2018-07-15T06:02:56.342Z,99668.03
2018-07-15T06:09:01.994Z,99670.67
2018-07-15T06:15:07.749Z,99668.61
2018-07-15T06:21:13.590Z,99668.47
2018-07-15T06:27:19.259Z,99677.91
2018-07-15T06:33:25.838Z,99675.75
2018-07-15T06:39:31.750Z,99678.70
2018-07-15T06:45:37.421Z,99672.82
2018-07-15T06:51:43.104Z,99669.27
2018-07-15T06:57:49.037Z,99654.96
2018-07-15T07:03:55.824Z,99658.62
2018-07-15T07:10:01.516Z,99659.00
2018-07-15T07:16:07.564Z,99658.39
2018-07-15T07:22:13.336Z,99656.92
2018-07-15T07:28:19.220Z,99656.44
2018-07-15T07:34:25.072Z,99649.61
2018-07-15T07:40:30.742Z,99647.73
2018-07-15T07:46:36.439Z,99643.85
2018-07-15T07:52:42.164Z,99653.10
2018-07-15T07:58:47.892Z,99653.11
2018-07-15T08:04:54.038Z,99650.23
2018-07-15T08:10:59.784Z,99643.92
2018-07-15T08:17:11.799Z,99634.82
2018-07-15T08:23:17.541Z,99635.94
2018-07-15T08:29:23.745Z,99635.84
2018-07-15T08:35:29.358Z,99630.04
2018-07-15T08:41:35.344Z,99617.98
2018-07-15T08:47:41.090Z,99617.90
2018-07-15T08:53:46.951Z,99627.14
2018-07-15T08:59:52.977Z,99618.08
2018-07-15T09:05:58.626Z,99613.63
2018-07-15T09:12:04.954Z,99618.73
2018-07-15T09:18:10.735Z,99623.52
2018-07-15T09:24:16.821Z,99609.91
2018-07-15T09:30:23.628Z,99606.91
2018-07-15T09:36:29.413Z,99599.13
2018-07-15T09:42:35.095Z,99614.69
2018-07-15T09:48:40.853Z,99605.30
2018-07-15T09:54:46.518Z,99592.36
2018-07-15T10:00:58.043Z,99592.77
2018-07-15T10:07:03.840Z,99584.21
2018-07-15T10:13:09.920Z,99577.55
2018-07-15T10:19:15.562Z,99570.08
2018-07-15T10:25:21.548Z,99581.55
2018-07-15T10:31:27.332Z,99570.07
2018-07-15T10:37:32.961Z,99560.36
2018-07-15T10:43:38.796Z,99559.68
2018-07-15T10:49:44.556Z,99557.09
2018-07-15T10:55:50.647Z,99559.85
2018-07-15T11:01:56.420Z,99547.29
2018-07-15T11:08:02.243Z,99547.30
2018-07-15T11:14:07.911Z,99535.41
2018-07-15T11:20:13.580Z,99538.41
2018-07-15T11:26:19.806Z,99521.84
2018-07-15T11:32:25.450Z,99521.69
2018-07-15T11:38:31.146Z,99514.47
2018-07-15T11:44:36.905Z,99513.78
2018-07-15T11:50:42.561Z,99504.82
2018-07-15T11:56:48.275Z,99492.39
2018-07-15T12:02:53.904Z,99489.72
2018-07-15T12:08:59.529Z,99485.36
2018-07-15T12:15:05.514Z,99477.84
2018-07-15T12:21:11.209Z,99462.59
2018-07-15T12:27:16.850Z,99469.17
2018-07-15T12:33:23.243Z,99469.01
2018-07-15T12:39:29.007Z,99460.42
2018-07-15T12:45:34.658Z,99448.02
2018-07-15T12:51:40.478Z,99442.05
2018-07-15T12:57:46.238Z,99439.10
2018-07-15T13:03:53.771Z,99437.28
2018-07-15T13:09:59.660Z,99438.98
2018-07-15T13:16:05.346Z,99434.50
2018-07-15T13:22:11.062Z,99409.78
2018-07-15T13:28:16.697Z,99413.52
2018-07-15T13:34:22.648Z,99408.95
2018-07-15T13:40:28.621Z,99405.83
2018-07-15T13:46:34.401Z,99407.34
2018-07-15T13:52:40.193Z,99402.38
2018-07-15T13:58:45.832Z,99393.89
2018-07-15T14:04:52.635Z,99390.66
2018-07-15T14:10:58.343Z,99398.66
2018-07-15T14:17:04.110Z,99392.37
2018-07-15T14:23:09.741Z,99384.36
2018-07-15T14:29:15.648Z,99383.55
2018-07-15T14:35:21.480Z,99367.54
2018-07-15T14:41:27.424Z,99367.27
2018-07-15T14:47:33.853Z,99375.35
2018-07-15T14:53:39.512Z,99363.38
2018-07-15T14:59:46.093Z,99375.14
2018-07-15T15:05:53.686Z,99365.88
2018-07-15T15:11:59.372Z,99356.20
2018-07-15T15:18:05.013Z,99355.46
2018-07-15T15:24:10.686Z,99363.82
2018-07-15T15:30:16.547Z,99361.47
2018-07-15T15:36:23.001Z,99356.69
2018-07-15T15:42:28.775Z,99346.33
2018-07-15T15:48:34.659Z,99345.17
2018-07-15T15:54:40.287Z,99331.34
2018-07-15T16:00:45.960Z,99331.55
2018-07-15T16:06:52.165Z,99332.47
2018-07-15T16:12:57.785Z,99330.14
2018-07-15T16:19:03.503Z,99323.42
2018-07-15T16:25:09.209Z,99320.00
2018-07-15T16:31:14.901Z,99318.53
2018-07-15T16:37:22.720Z,99319.09
2018-07-15T16:43:29.074Z,99306.31
2018-07-15T16:49:34.697Z,99309.53
2018-07-15T16:55:40.450Z,99309.72
2018-07-15T17:01:46.145Z,99309.57
2018-07-15T17:07:51.883Z,99310.92
2018-07-15T17:13:57.639Z,99307.95
2018-07-15T17:20:03.378Z,99317.48
2018-07-15T17:26:09.015Z,99310.56
2018-07-15T17:32:14.786Z,99318.48
2018-07-15T17:38:20.733Z,99319.39
2018-07-15T17:44:27.319Z,99316.38
2018-07-15T17:50:32.978Z,99313.92
2018-07-15T17:56:38.722Z,99316.28
2018-07-15T18:02:44.380Z,99322.39
2018-07-15T18:08:50.391Z,99319.61
2018-07-15T18:14:56.349Z,99323.67
2018-07-15T18:21:02.221Z,99324.20
2018-07-15T18:27:08.031Z,99324.73
2018-07-15T18:33:13.767Z,99326.29
2018-07-15T18:39:19.666Z,99339.77
2018-07-15T18:45:25.428Z,99339.66
2018-07-15T18:51:31.071Z,99342.58
2018-07-15T18:57:36.782Z,99344.27
2018-07-15T19:03:42.467Z,99344.88
2018-07-15T19:09:48.143Z,99348.75
2018-07-15T19:15:53.828Z,99356.47
2018-07-15T19:21:59.497Z,99366.73
2018-07-15T19:28:05.360Z,99371.83
2018-07-15T19:34:10.978Z,99370.63
2018-07-15T19:40:16.759Z,99366.76
2018-07-15T19:46:23.363Z,99368.23
2018-07-15T19:52:29.261Z,99365.80
2018-07-15T19:58:34.918Z,99365.06
2018-07-15T20:04:40.622Z,99368.67
2018-07-15T20:10:46.682Z,99376.41
2018-07-15T20:16:53.808Z,99378.09
2018-07-15T20:23:00.504Z,99389.06
2018-07-15T20:29:06.287Z,99396.45
2018-07-15T20:35:11.927Z,99390.14
2018-07-15T20:41:17.610Z,99396.91
2018-07-15T20:47:24.352Z,99393.77
2018-07-15T20:53:30.075Z,99408.90
2018-07-15T20:59:36.110Z,99413.13
2018-07-15T21:05:41.867Z,99409.69
2018-07-15T21:11:47.683Z,99416.75
2018-07-15T21:17:53.594Z,99414.64
2018-07-15T21:23:59.894Z,99416.14
2018-07-15T21:30:05.595Z,99411.80
2018-07-15T21:36:11.256Z,99416.68
2018-07-15T21:42:16.995Z,99411.75
2018-07-15T21:48:22.862Z,99422.67
2018-07-15T21:54:28.664Z,99417.49
2018-07-15T22:00:34.440Z,99423.91
2018-07-15T22:06:56.768Z,99428.19
2018-07-15T22:13:02.395Z,99425.45
2018-07-15T22:19:08.249Z,99435.05
2018-07-15T22:25:13.942Z,99434.45
2018-07-15T22:31:19.660Z,99428.31
2018-07-15T22:37:26.399Z,99441.67
2018-07-15T22:43:32.185Z,99432.16
2018-07-15T22:49:37.942Z,99435.00
2018-07-15T22:55:43.680Z,99436.64
2018-07-15T23:01:49.827Z,99431.84
2018-07-15T23:07:56.195Z,99433.77
2018-07-15T23:14:01.964Z,99429.84
2018-07-15T23:20:07.650Z,99434.67
2018-07-15T23:26:13.419Z,99426.92
2018-07-15T23:32:19.489Z,99427.11
2018-07-15T23:38:25.269Z,99425.80
2018-07-15T23:44:30.899Z,99422.72
2018-07-15T23:50:36.574Z,99421.14
2018-07-15T23:56:42.158Z,99418.02
